createdAt,value
2019-03-21T00:01:11.835Z,102164.89
2019-03-21T00:03:46.706Z,102165.25
2019-03-21T00:06:19.789Z,102166.78
2019-03-21T00:08:51.447Z,102166.45
2019-03-21T00:11:59.847Z,102167.83
2019-03-21T00:15:16.329Z,102165.08
2019-03-21T00:17:55.687Z,102173.55
2019-03-21T00:20:30.351Z,102164.61
2019-03-21T00:23:01.736Z,102163.77
2019-03-21T00:25:34.029Z,102145.22
2019-03-21T00:28:06.758Z,102150.78
2019-03-21T00:30:38.918Z,102151.05
2019-03-21T00:33:10.276Z,102148.92
2019-03-21T00:35:41.664Z,102151.98
2019-03-21T00:38:16.373Z,102151.47
2019-03-21T00:40:47.763Z,102140.81
2019-03-21T00:43:19.191Z,102142.28
2019-03-21T00:45:50.982Z,102140.64
2019-03-21T00:48:31.723Z,102146.20
2019-03-21T00:51:02.668Z,102147.52
2019-03-21T00:53:36.583Z,102144.97
2019-03-21T00:56:06.633Z,102150.02
2019-03-21T00:58:38.003Z,102149.22
2019-03-21T01:01:13.968Z,102143.02
2019-03-21T01:03:45.915Z,102136.62
2019-03-21T01:06:24.504Z,102136.50
2019-03-21T01:08:55.896Z,102130.62
2019-03-21T01:11:27.570Z,102131.36
2019-03-21T01:13:59.053Z,102141.21
2019-03-21T01:16:30.281Z,102132.36
2019-03-21T01:19:01.298Z,102131.03
2019-03-21T01:21:33.716Z,102135.59
2019-03-21T01:24:04.550Z,102133.08
2019-03-21T01:26:36.690Z,102133.50
2019-03-21T01:29:09.963Z,102128.27
2019-03-21T01:31:44.582Z,102124.67
2019-03-21T01:34:16.487Z,102124.50
2019-03-21T01:36:48.312Z,102123.57
2019-03-21T01:39:19.134Z,102116.09
2019-03-21T01:42:09.212Z,102119.53
2019-03-21T01:44:42.940Z,102117.86
2019-03-21T01:47:15.160Z,102118.84
2019-03-21T01:49:46.135Z,102114.54
2019-03-21T01:52:17.204Z,102112.27
2019-03-21T01:54:48.654Z,102105.27
2019-03-21T01:57:20.218Z,102107.45
2019-03-21T01:59:52.556Z,102106.75
2019-03-21T02:02:24.861Z,102108.48
2019-03-21T02:04:57.385Z,102104.48
2019-03-21T02:07:28.722Z,102106.24
2019-03-21T02:09:59.808Z,102099.37
2019-03-21T02:12:30.918Z,102095.42
2019-03-21T02:15:02.393Z,102095.27
2019-03-21T02:17:36.132Z,102088.17
2019-03-21T02:20:08.110Z,102084.89
2019-03-21T02:22:40.917Z,102085.19
2019-03-21T02:25:18.150Z,102082.45
2019-03-21T02:27:50.601Z,102080.68
2019-03-21T02:30:26.799Z,102074.02
2019-03-21T02:33:07.836Z,102072.95
2019-03-21T02:35:39.318Z,102078.55
2019-03-21T02:38:10.395Z,102075.48
2019-03-21T02:40:43.554Z,102076.88
2019-03-21T02:43:15.773Z,102081.39
2019-03-21T02:45:49.345Z,102083.64
2019-03-21T02:48:20.432Z,102083.58
2019-03-21T02:50:52.400Z,102078.63
2019-03-21T02:53:23.356Z,102077.56
2019-03-21T02:55:54.617Z,102076.67
2019-03-21T02:58:26.237Z,102085.31
2019-03-21T03:00:59.656Z,102085.14
2019-03-21T03:03:30.589Z,102086.95
2019-03-21T03:06:01.355Z,102087.63
2019-03-21T03:08:33.022Z,102091.33
2019-03-21T03:11:04.640Z,102090.64
2019-03-21T03:13:35.635Z,102097.52
2019-03-21T03:16:06.554Z,102096.98
2019-03-21T03:18:39.140Z,102101.05
2019-03-21T03:21:10.904Z,102101.64
2019-03-21T03:23:41.850Z,102101.35
2019-03-21T03:26:12.571Z,102100.89
2019-03-21T03:28:44.705Z,102100.00
2019-03-21T03:31:16.605Z,102101.90
2019-03-21T03:33:50.476Z,102107.38
2019-03-21T03:36:24.163Z,102104.56
2019-03-21T03:38:57.376Z,102100.79
2019-03-21T03:41:29.428Z,102095.39
2019-03-21T03:44:01.030Z,102096.85
2019-03-21T03:46:35.986Z,102101.80
2019-03-21T03:49:08.529Z,102094.91
2019-03-21T03:51:40.162Z,102104.20
2019-03-21T03:54:11.512Z,102105.62
2019-03-21T03:56:42.492Z,102105.80
2019-03-21T03:59:14.051Z,102105.84
2019-03-21T04:01:45.358Z,102112.66
2019-03-21T04:04:21.772Z,102109.39
2019-03-21T04:07:03.195Z,102118.59
2019-03-21T04:09:43.622Z,102120.83
2019-03-21T04:12:23.296Z,102121.91
2019-03-21T04:14:59.435Z,102121.65
2019-03-21T04:17:33.278Z,102124.78
2019-03-21T04:20:06.148Z,102125.73
2019-03-21T04:22:39.955Z,102124.98
2019-03-21T04:25:13.809Z,102126.38
2019-03-21T04:27:45.722Z,102118.57
2019-03-21T04:30:17.136Z,102123.05
2019-03-21T04:32:51.677Z,102121.83
2019-03-21T04:35:22.428Z,102130.98
2019-03-21T04:37:55.710Z,102127.09
2019-03-21T04:40:27.045Z,102125.00
2019-03-21T04:42:58.691Z,102121.55
2019-03-21T04:45:30.708Z,102124.56
2019-03-21T04:48:08.318Z,102125.95
2019-03-21T04:50:39.299Z,102124.80
2019-03-21T04:53:10.866Z,102131.89
2019-03-21T04:55:45.465Z,102125.39
2019-03-21T04:58:16.118Z,102127.61
2019-03-21T05:00:53.736Z,102128.95
2019-03-21T05:03:33.116Z,102136.77
2019-03-21T05:06:04.432Z,102147.23
2019-03-21T05:08:37.056Z,102145.48
2019-03-21T05:11:07.926Z,102142.91
2019-03-21T05:13:40.924Z,102141.09
2019-03-21T05:16:44.737Z,102137.59
2019-03-21T05:19:15.929Z,102144.89
2019-03-21T05:21:56.095Z,102149.69
2019-03-21T05:24:26.985Z,102144.74
2019-03-21T05:27:00.264Z,102149.78
2019-03-21T05:29:31.348Z,102145.45
2019-03-21T05:32:03.777Z,102149.90
2019-03-21T05:34:35.030Z,102151.58
2019-03-21T05:37:06.445Z,102150.89
2019-03-21T05:39:40.505Z,102151.87
2019-03-21T05:42:17.000Z,102160.01
2019-03-21T05:44:50.009Z,102163.25
2019-03-21T05:47:23.851Z,102164.06
2019-03-21T05:49:56.515Z,102159.81
2019-03-21T05:52:32.814Z,102162.17
2019-03-21T05:55:03.561Z,102161.50
2019-03-21T05:57:36.523Z,102165.27
2019-03-21T06:00:10.903Z,102162.86
2019-03-21T06:02:41.909Z,102163.37
2019-03-21T06:05:12.932Z,102157.34
2019-03-21T06:08:04.278Z,102168.39
2019-03-21T06:10:42.288Z,102165.45
2019-03-21T06:13:19.295Z,102167.09
2019-03-21T06:15:50.213Z,102173.05
2019-03-21T06:18:42.230Z,102171.17
2019-03-21T06:21:36.597Z,102172.52
2019-03-21T06:24:44.915Z,102169.92
2019-03-21T06:27:42.847Z,102173.48
2019-03-21T06:30:14.208Z,102170.47
2019-03-21T06:32:46.785Z,102167.96
2019-03-21T06:35:25.825Z,102174.52
2019-03-21T06:38:08.270Z,102172.43
2019-03-21T06:40:41.167Z,102174.02
2019-03-21T06:43:12.133Z,102181.92
2019-03-21T06:45:48.221Z,102183.14
2019-03-21T06:48:17.067Z,102175.72
2019-03-21T06:50:48.828Z,102175.18
2019-03-21T06:53:20.350Z,102176.18
2019-03-21T06:55:52.503Z,102173.31
2019-03-21T07:02:15.968Z,102176.31
2019-03-21T07:05:26.570Z,102165.84
2019-03-21T07:08:00.752Z,102172.33
2019-03-21T07:10:31.690Z,102175.92
2019-03-21T07:13:02.706Z,102171.45
2019-03-21T07:15:34.098Z,102165.42
2019-03-21T07:18:05.045Z,102174.64
2019-03-21T07:20:36.115Z,102170.97
2019-03-21T07:23:08.399Z,102165.87
2019-03-21T07:25:42.830Z,102167.08
2019-03-21T07:28:14.319Z,102167.36
2019-03-21T07:30:45.271Z,102165.34
2019-03-21T07:33:16.407Z,102163.86
2019-03-21T07:35:47.701Z,102170.13
2019-03-21T07:38:18.701Z,102169.99
2019-03-21T07:40:52.368Z,102173.05
2019-03-21T07:43:23.735Z,102168.80
2019-03-21T07:45:56.216Z,102168.13
2019-03-21T07:48:27.534Z,102163.48
2019-03-21T07:51:01.575Z,102162.14
2019-03-21T07:53:49.484Z,102154.91
2019-03-21T07:56:20.795Z,102157.08
2019-03-21T07:58:54.401Z,102163.71
2019-03-21T08:01:29.400Z,102161.58
2019-03-21T08:04:03.137Z,102161.21
2019-03-21T08:06:34.393Z,102164.91
2019-03-21T08:09:08.649Z,102159.59
2019-03-21T08:11:40.391Z,102161.83
2019-03-21T08:14:13.180Z,102161.16
2019-03-21T08:16:45.637Z,102154.06
2019-03-21T08:19:18.044Z,102157.33
2019-03-21T08:21:53.787Z,102160.84
2019-03-21T08:24:25.319Z,102164.09
2019-03-21T08:26:58.132Z,102164.36
2019-03-21T08:29:31.200Z,102170.42
2019-03-21T08:32:06.533Z,102172.19
2019-03-21T08:34:37.738Z,102166.16
2019-03-21T08:37:09.720Z,102163.26
2019-03-21T08:39:40.795Z,102165.45
2019-03-21T08:46:03.746Z,102171.53
2019-03-21T08:48:35.016Z,102166.41
2019-03-21T08:51:08.576Z,102166.07
2019-03-21T08:53:39.029Z,102158.56
2019-03-21T08:56:10.595Z,102169.92
2019-03-21T08:58:41.745Z,102163.33
2019-03-21T09:01:17.370Z,102168.73
2019-03-21T09:03:54.795Z,102163.56
2019-03-21T09:06:28.446Z,102162.78
2019-03-21T09:08:59.960Z,102155.95
2019-03-21T09:11:33.377Z,102152.21
2019-03-21T09:14:05.333Z,102148.95
2019-03-21T09:16:37.003Z,102161.02
2019-03-21T09:19:08.613Z,102155.83
2019-03-21T09:21:46.626Z,102149.28
2019-03-21T09:24:23.090Z,102152.80
2019-03-21T09:27:10.750Z,102145.16
2019-03-21T09:29:53.045Z,102154.57
2019-03-21T09:37:13.490Z,102147.27
2019-03-21T09:43:41.366Z,102149.09
2019-03-21T09:46:14.829Z,102145.09
2019-03-21T09:48:51.248Z,102141.71
2019-03-21T09:51:38.512Z,102139.09
2019-03-21T09:54:13.733Z,102138.90
2019-03-21T09:56:45.495Z,102135.45
2019-03-21T09:59:16.647Z,102141.91
2019-03-21T10:01:47.623Z,102141.41
2019-03-21T10:04:19.880Z,102148.14
2019-03-21T10:06:51.938Z,102140.23
2019-03-21T10:09:24.518Z,102141.41
2019-03-21T10:11:58.150Z,102137.17
2019-03-21T10:14:30.915Z,102136.77
2019-03-21T10:17:02.517Z,102127.22
2019-03-21T10:19:33.763Z,102123.97
2019-03-21T10:22:06.864Z,102127.53
2019-03-21T10:24:38.171Z,102126.88
2019-03-21T10:27:11.164Z,102127.36
2019-03-21T10:29:46.143Z,102115.75
2019-03-21T10:32:18.069Z,102125.71
2019-03-21T10:34:49.826Z,102117.87
2019-03-21T10:37:23.121Z,102122.37
2019-03-21T10:39:55.797Z,102118.59
2019-03-21T10:42:27.152Z,102114.96
2019-03-21T10:45:00.397Z,102119.52
2019-03-21T10:47:32.745Z,102114.62
2019-03-21T10:50:05.356Z,102113.00
2019-03-21T10:52:37.061Z,102108.59
2019-03-21T10:55:10.697Z,102107.42
2019-03-21T10:57:42.419Z,102102.71
2019-03-21T11:00:14.192Z,102097.25
2019-03-21T11:02:46.239Z,102097.03
2019-03-21T11:05:18.530Z,102085.95
2019-03-21T11:07:50.072Z,102087.56
2019-03-21T11:10:26.649Z,102090.66
2019-03-21T11:12:58.056Z,102082.66
2019-03-21T11:15:30.866Z,102083.73
2019-03-21T11:18:04.129Z,102083.83
2019-03-21T11:20:39.789Z,102086.48
2019-03-21T11:23:11.734Z,102086.63
2019-03-21T11:25:45.910Z,102081.98
2019-03-21T11:28:17.869Z,102070.92
2019-03-21T11:30:49.151Z,102068.13
2019-03-21T11:33:20.206Z,102070.32
2019-03-21T11:35:51.524Z,102057.01
2019-03-21T11:38:23.252Z,102057.77
2019-03-21T11:41:00.426Z,102052.44
2019-03-21T11:43:32.966Z,102057.37
2019-03-21T11:46:04.591Z,102059.33
2019-03-21T11:48:45.528Z,102051.72
2019-03-21T11:51:22.817Z,102044.14
2019-03-21T11:53:54.732Z,102046.11
2019-03-21T11:56:28.066Z,102040.80
2019-03-21T11:59:06.101Z,102036.81
2019-03-21T12:01:37.417Z,102037.40
2019-03-21T12:04:09.164Z,102029.25
2019-03-21T12:06:45.844Z,102032.23
2019-03-21T12:09:18.111Z,102034.77
2019-03-21T12:11:49.327Z,102023.77
2019-03-21T12:14:21.006Z,102025.23
2019-03-21T12:16:53.456Z,102016.37
2019-03-21T12:19:24.542Z,102008.61
2019-03-21T12:22:04.871Z,102013.56
2019-03-21T12:24:34.362Z,102019.73
2019-03-21T12:27:09.422Z,102011.20
2019-03-21T12:29:45.549Z,102011.38
2019-03-21T12:32:25.150Z,102000.13
2019-03-21T12:34:56.209Z,102014.69
2019-03-21T12:37:28.436Z,102004.55
2019-03-21T12:40:00.480Z,101994.95
2019-03-21T12:42:34.415Z,101988.11
2019-03-21T12:45:07.288Z,101987.33
2019-03-21T12:47:39.544Z,101989.03
2019-03-21T12:50:11.967Z,101984.95
2019-03-21T12:52:43.117Z,101981.92
2019-03-21T12:55:14.200Z,101976.86
2019-03-21T12:57:46.367Z,101978.38
2019-03-21T13:00:19.342Z,101973.97
2019-03-21T13:02:50.634Z,101966.55
2019-03-21T13:05:29.133Z,101961.36
2019-03-21T13:08:01.125Z,101960.49
2019-03-21T13:10:33.960Z,101959.03
2019-03-21T13:13:12.726Z,101956.66
2019-03-21T13:15:47.145Z,101959.08
2019-03-21T13:18:18.924Z,101951.89
2019-03-21T13:20:50.713Z,101952.03
2019-03-21T13:23:22.117Z,101954.20
2019-03-21T13:25:57.274Z,101949.48
2019-03-21T13:28:32.947Z,101939.93
2019-03-21T13:31:05.446Z,101942.09
2019-03-21T13:33:41.535Z,101936.61
2019-03-21T13:38:47.606Z,101932.82
2019-03-21T13:41:19.445Z,101933.68
2019-03-21T13:43:50.857Z,101925.41
2019-03-21T13:46:21.855Z,101926.34
2019-03-21T13:48:53.442Z,101925.02
2019-03-21T13:51:24.674Z,101929.64
2019-03-21T13:53:55.841Z,101931.61
2019-03-21T13:56:37.578Z,101919.02
2019-03-21T13:58:59.862Z,101914.55
2019-03-21T14:01:35.058Z,101910.84
2019-03-21T14:04:06.805Z,101910.08
2019-03-21T14:06:39.155Z,101900.66
2019-03-21T14:09:15.361Z,101895.69
2019-03-21T14:11:50.972Z,101900.86
2019-03-21T14:14:24.090Z,101899.03
2019-03-21T14:16:55.465Z,101895.86
2019-03-21T14:19:26.953Z,101894.52
2019-03-21T14:21:58.350Z,101896.02
2019-03-21T14:24:29.696Z,101892.56
2019-03-21T14:27:00.842Z,101889.78
2019-03-21T14:29:32.071Z,101874.95
2019-03-21T14:32:03.452Z,101874.30
2019-03-21T14:34:34.617Z,101879.70
2019-03-21T14:37:06.060Z,101884.55
2019-03-21T14:39:38.831Z,101889.18
2019-03-21T14:42:10.297Z,101881.42
2019-03-21T14:44:42.502Z,101879.23
2019-03-21T14:47:15.234Z,101877.20
2019-03-21T14:49:47.009Z,101880.17
2019-03-21T14:52:18.768Z,101880.43
2019-03-21T14:54:50.397Z,101875.88
2019-03-21T14:57:22.354Z,101881.36
2019-03-21T14:59:53.422Z,101879.52
2019-03-21T15:02:27.369Z,101882.06
2019-03-21T15:04:58.360Z,101876.13
2019-03-21T15:07:39.907Z,101870.94
2019-03-21T15:10:11.873Z,101873.30
2019-03-21T15:12:45.767Z,101868.66
2019-03-21T15:15:18.286Z,101871.11
2019-03-21T15:17:49.302Z,101871.14
2019-03-21T15:20:20.688Z,101878.01
2019-03-21T15:22:52.551Z,101874.69
2019-03-21T15:25:24.049Z,101871.41
2019-03-21T15:27:55.428Z,101866.73
2019-03-21T15:30:26.491Z,101868.82
2019-03-21T15:32:57.406Z,101871.30
2019-03-21T15:35:30.396Z,101874.11
2019-03-21T15:38:02.128Z,101872.39
2019-03-21T15:40:33.464Z,101860.37
2019-03-21T15:43:06.599Z,101862.69
2019-03-21T15:45:37.840Z,101859.75
2019-03-21T15:48:09.065Z,101856.51
2019-03-21T15:50:40.153Z,101857.86
2019-03-21T15:53:15.292Z,101851.61
2019-03-21T15:55:46.315Z,101846.76
2019-03-21T15:58:17.265Z,101849.16
2019-03-21T16:00:48.492Z,101847.48
2019-03-21T16:03:19.576Z,101846.35
2019-03-21T16:05:50.684Z,101850.67
2019-03-21T16:08:22.398Z,101847.89
2019-03-21T16:10:53.567Z,101850.81
2019-03-21T16:13:24.889Z,101857.70
2019-03-21T16:15:55.862Z,101856.94
2019-03-21T16:18:27.608Z,101852.86
2019-03-21T16:20:59.462Z,101857.84
2019-03-21T16:23:33.943Z,101853.58
2019-03-21T16:26:05.840Z,101852.55
2019-03-21T16:28:37.359Z,101853.08
2019-03-21T16:31:11.911Z,101844.77
2019-03-21T16:33:44.637Z,101840.53
2019-03-21T16:36:17.370Z,101840.74
2019-03-21T16:39:00.022Z,101845.75
2019-03-21T16:41:31.470Z,101843.59
2019-03-21T16:44:03.124Z,101848.42
2019-03-21T16:46:36.284Z,101847.05
2019-03-21T16:49:10.348Z,101852.08
2019-03-21T16:51:45.044Z,101850.98
2019-03-21T16:54:19.055Z,101854.92
2019-03-21T16:56:50.365Z,101850.34
2019-03-21T16:59:23.833Z,101849.03
2019-03-21T17:01:55.232Z,101853.81
2019-03-21T17:04:26.150Z,101847.68
2019-03-21T17:07:04.920Z,101853.71
2019-03-21T17:09:36.959Z,101857.02
2019-03-21T17:12:08.463Z,101853.17
2019-03-21T17:14:39.547Z,101858.19
2019-03-21T17:17:10.952Z,101859.78
2019-03-21T17:19:43.844Z,101851.05
2019-03-21T17:22:15.800Z,101861.34
2019-03-21T17:24:47.383Z,101865.16
2019-03-21T17:27:18.662Z,101866.08
2019-03-21T17:29:50.709Z,101864.70
2019-03-21T17:32:23.948Z,101871.16
2019-03-21T17:34:55.750Z,101872.42
2019-03-21T17:37:27.817Z,101875.56
2019-03-21T17:39:58.930Z,101878.38
2019-03-21T17:42:32.151Z,101879.68
2019-03-21T17:45:03.273Z,101876.73
2019-03-21T17:47:34.339Z,101876.10
2019-03-21T17:50:05.588Z,101877.29
2019-03-21T17:52:38.327Z,101881.92
2019-03-21T17:55:10.163Z,101882.98
2019-03-21T17:57:41.221Z,101883.05
2019-03-21T18:00:14.539Z,101889.20
2019-03-21T18:02:56.708Z,101892.09
2019-03-21T18:05:30.011Z,101898.22
2019-03-21T18:08:01.369Z,101894.83
2019-03-21T18:10:34.940Z,101895.53
2019-03-21T18:13:06.443Z,101900.96
2019-03-21T18:15:37.865Z,101907.33
2019-03-21T18:18:11.177Z,101909.33
2019-03-21T18:20:42.856Z,101911.06
2019-03-21T18:23:14.961Z,101912.00
2019-03-21T18:25:48.193Z,101907.27
2019-03-21T18:28:19.652Z,101913.50
2019-03-21T18:30:51.665Z,101913.70
2019-03-21T18:33:23.516Z,101920.23
2019-03-21T18:35:57.853Z,101926.70
2019-03-21T18:38:29.017Z,101929.91
2019-03-21T18:41:10.806Z,101929.80
2019-03-21T18:44:07.404Z,101930.62
2019-03-21T18:46:39.559Z,101935.23
2019-03-21T18:49:14.850Z,101929.64
2019-03-21T18:51:46.127Z,101933.88
2019-03-21T18:54:17.254Z,101935.02
2019-03-21T18:56:50.864Z,101933.08
2019-03-21T18:59:26.594Z,101934.41
2019-03-21T19:01:59.177Z,101931.73
2019-03-21T19:04:30.442Z,101929.39
2019-03-21T19:07:03.122Z,101929.34
2019-03-21T19:09:35.252Z,101928.73
2019-03-21T19:12:06.862Z,101928.81
2019-03-21T19:14:38.325Z,101928.81
2019-03-21T19:17:10.378Z,101929.46
2019-03-21T19:19:44.249Z,101926.95
2019-03-21T19:22:16.134Z,101932.53
2019-03-21T19:24:50.026Z,101937.64
2019-03-21T19:27:21.488Z,101937.73
2019-03-21T19:29:57.494Z,101936.18
2019-03-21T19:32:28.850Z,101935.09
2019-03-21T19:35:00.404Z,101935.67
2019-03-21T19:37:34.883Z,101928.82
2019-03-21T19:40:07.811Z,101934.30
2019-03-21T19:42:39.722Z,101932.66
2019-03-21T19:45:14.176Z,101927.08
2019-03-21T19:47:45.654Z,101937.44
2019-03-21T19:50:17.575Z,101929.90
2019-03-21T19:52:59.995Z,101930.09
2019-03-21T19:55:31.535Z,101932.94
2019-03-21T19:58:03.410Z,101936.69
2019-03-21T20:00:34.815Z,101934.14
2019-03-21T20:03:06.045Z,101940.60
2019-03-21T20:05:37.994Z,101945.73
2019-03-21T20:08:09.204Z,101949.62
2019-03-21T20:10:41.542Z,101949.08
2019-03-21T20:13:12.701Z,101948.84
2019-03-21T20:15:44.726Z,101948.47
2019-03-21T20:18:15.824Z,101948.80
2019-03-21T20:20:47.012Z,101949.09
2019-03-21T20:23:18.789Z,101951.80
2019-03-21T20:25:50.317Z,101960.03
2019-03-21T20:28:22.089Z,101955.28
2019-03-21T20:30:55.307Z,101960.03
2019-03-21T20:33:26.904Z,101961.48
2019-03-21T20:35:58.006Z,101957.83
2019-03-21T20:38:29.529Z,101951.13
2019-03-21T20:41:00.980Z,101960.27
2019-03-21T20:43:33.763Z,101963.97
2019-03-21T20:46:07.744Z,101961.79
2019-03-21T20:48:36.406Z,101963.20
2019-03-21T20:51:08.079Z,101955.58
2019-03-21T20:53:40.062Z,101955.66
2019-03-21T20:56:11.468Z,101959.28
2019-03-21T20:58:44.256Z,101956.08
2019-03-21T21:01:19.052Z,101951.59
2019-03-21T21:03:54.654Z,101957.43
2019-03-21T21:06:29.213Z,101952.27
2019-03-21T21:09:00.202Z,101955.84
2019-03-21T21:11:31.626Z,101958.48
2019-03-21T21:14:02.933Z,101955.39
2019-03-21T21:16:37.183Z,101948.08
2019-03-21T21:19:12.182Z,101951.24
2019-03-21T21:21:46.453Z,101953.61
2019-03-21T21:24:19.095Z,101955.95
2019-03-21T21:26:56.907Z,101961.00
2019-03-21T21:29:32.073Z,101959.61
2019-03-21T21:32:09.450Z,101960.13
2019-03-21T21:34:41.627Z,101959.97
2019-03-21T21:37:21.293Z,101961.33
2019-03-21T21:39:55.050Z,101964.04
2019-03-21T21:42:31.994Z,101971.38
2019-03-21T21:45:11.745Z,101976.61
2019-03-21T21:47:43.639Z,101973.11
2019-03-21T21:50:15.963Z,101970.27
2019-03-21T21:52:49.332Z,101967.64
2019-03-21T21:55:20.847Z,101967.19
2019-03-21T21:57:51.911Z,101959.21
2019-03-21T22:00:25.092Z,101972.45
2019-03-21T22:03:02.380Z,101968.92
2019-03-21T22:05:40.204Z,101963.75
2019-03-21T22:08:12.534Z,101962.57
2019-03-21T22:10:44.093Z,101958.41
2019-03-21T22:13:15.324Z,101963.75
2019-03-21T22:15:48.805Z,101969.95
2019-03-21T22:18:23.091Z,101969.88
2019-03-21T22:20:54.705Z,101971.27
2019-03-21T22:23:30.948Z,101979.09
2019-03-21T22:26:01.911Z,101978.64
2019-03-21T22:28:35.616Z,101978.37
2019-03-21T22:31:07.349Z,101977.70
2019-03-21T22:33:44.858Z,101984.00
2019-03-21T22:36:15.917Z,101984.87
2019-03-21T22:38:49.183Z,101985.00
2019-03-21T22:41:22.782Z,101977.20
2019-03-21T22:43:56.881Z,101983.70
2019-03-21T22:46:28.524Z,101987.17
2019-03-21T22:49:00.082Z,101985.25
2019-03-21T22:51:39.732Z,101987.88
2019-03-21T22:54:13.949Z,101985.25
2019-03-21T22:56:45.334Z,101979.19
2019-03-21T22:59:16.581Z,101984.95
2019-03-21T23:01:50.318Z,101974.27
2019-03-21T23:04:21.795Z,101973.59
2019-03-21T23:06:53.472Z,101971.98
2019-03-21T23:09:25.691Z,101967.38
2019-03-21T23:11:59.574Z,101969.27
2019-03-21T23:14:32.623Z,101967.08
2019-03-21T23:17:05.523Z,101978.41
2019-03-21T23:19:36.877Z,101969.64
2019-03-21T23:22:08.781Z,101968.20
2019-03-21T23:24:41.074Z,101973.23
2019-03-21T23:27:13.179Z,101975.05
2019-03-21T23:29:44.227Z,101979.00
2019-03-21T23:32:16.531Z,101976.55
2019-03-21T23:34:48.837Z,101976.02
2019-03-21T23:37:20.335Z,101975.22
2019-03-21T23:39:52.783Z,101969.84
2019-03-21T23:42:26.927Z,101968.02
2019-03-21T23:44:57.967Z,101968.14
2019-03-21T23:47:29.101Z,101966.20
2019-03-21T23:50:00.483Z,101961.15
2019-03-21T23:52:33.837Z,101958.64
2019-03-21T23:55:05.018Z,101954.97
2019-03-21T23:57:40.203Z,101954.28
